createdAt,value
2023-05-03T00:00:30.921Z,993.7
2023-05-03T00:04:34.106Z,993.7
2023-05-03T00:08:36.895Z,993.7
2023-05-03T00:10:38.871Z,993.7
2023-05-03T00:14:41.643Z,993.8
2023-05-03T00:16:42.920Z,993.8
2023-05-03T00:20:46.024Z,993.8
2023-05-03T00:24:49.183Z,993.9
2023-05-03T00:26:50.506Z,993.8
2023-05-03T00:30:52.911Z,993.8
2023-05-03T00:34:55.337Z,993.8
2023-05-03T00:36:56.908Z,993.8
2023-05-03T00:41:00.800Z,993.8
2023-05-03T00:43:01.905Z,993.9
2023-05-03T00:45:03.290Z,993.8
2023-05-03T00:47:04.914Z,993.7
2023-05-03T00:51:07.764Z,993.8
2023-05-03T00:53:08.782Z,993.7
2023-05-03T00:55:09.754Z,993.6
2023-05-03T00:57:11.023Z,993.6
2023-05-03T00:59:12.519Z,993.6
2023-05-03T01:03:15.448Z,993.7
2023-05-03T01:07:18.069Z,993.7
2023-05-03T01:09:19.314Z,993.7
2023-05-03T01:13:21.924Z,993.6
2023-05-03T01:15:23.279Z,993.7
2023-05-03T01:19:26.018Z,993.7
2023-05-03T01:23:29.112Z,993.7
2023-05-03T01:25:30.135Z,993.7
2023-05-03T01:29:33.582Z,993.7
2023-05-03T01:33:36.595Z,993.7
2023-05-03T01:35:38.483Z,993.6
2023-05-03T01:39:41.403Z,993.7
2023-05-03T01:41:42.797Z,993.6
2023-05-03T01:45:46.063Z,993.5
2023-05-03T01:49:48.526Z,993.5
2023-05-03T01:51:49.660Z,993.6
2023-05-03T01:55:52.760Z,993.6
2023-05-03T01:57:53.849Z,993.6
2023-05-03T02:01:57.110Z,993.5
2023-05-03T02:05:59.831Z,993.7
2023-05-03T02:08:00.864Z,993.6
2023-05-03T02:12:03.609Z,993.6
2023-05-03T02:16:50.526Z,993.6
2023-05-03T02:18:52.459Z,993.6
2023-05-03T02:22:55.190Z,993.6
2023-05-03T02:26:59.000Z,993.6
2023-05-03T02:29:00.245Z,993.6
2023-05-03T02:33:03.655Z,993.6
2023-05-03T02:35:04.592Z,993.6
2023-05-03T02:39:07.990Z,993.5
2023-05-03T02:43:11.005Z,993.5
2023-05-03T02:45:12.560Z,993.4
2023-05-03T02:49:14.928Z,993.5
2023-05-03T02:53:18.303Z,993.4
2023-05-03T02:55:20.084Z,993.5
2023-05-03T02:59:22.817Z,993.5
2023-05-03T03:01:23.988Z,993.4
2023-05-03T03:05:27.414Z,993.5
2023-05-03T03:09:31.077Z,993.5
2023-05-03T03:11:32.509Z,993.5
2023-05-03T03:15:35.126Z,993.5
2023-05-03T03:17:36.122Z,993.5
2023-05-03T03:21:39.590Z,993.6
2023-05-03T03:25:42.488Z,993.6
2023-05-03T03:27:44.118Z,993.6
2023-05-03T03:31:46.856Z,993.6
2023-05-03T03:35:49.292Z,993.6
2023-05-03T03:37:51.178Z,993.6
2023-05-03T03:41:53.846Z,993.6
2023-05-03T03:43:55.718Z,993.6
2023-05-03T03:45:56.770Z,993.7
2023-05-03T03:47:58.433Z,993.8
2023-05-03T03:52:01.340Z,993.7
2023-05-03T03:54:03.120Z,993.7
2023-05-03T03:56:04.936Z,993.7
2023-05-03T03:58:06.001Z,993.7
2023-05-03T04:00:07.115Z,993.7
2023-05-03T04:04:10.624Z,993.7
2023-05-03T04:06:11.744Z,993.8
2023-05-03T04:08:13.570Z,993.8
2023-05-03T04:10:15.093Z,993.7
2023-05-03T04:14:17.975Z,993.8
2023-05-03T04:16:19.006Z,993.8
2023-05-03T04:20:21.905Z,993.8
2023-05-03T04:24:24.687Z,993.9
2023-05-03T04:26:31.611Z,993.9
2023-05-03T04:30:28.951Z,994
2023-05-03T04:34:31.295Z,994
2023-05-03T04:36:32.611Z,994
2023-05-03T04:40:34.986Z,993.9
2023-05-03T04:42:36.554Z,994
2023-05-03T04:44:37.918Z,993.9
2023-05-03T04:46:39.489Z,994
2023-05-03T04:50:42.342Z,994
2023-05-03T04:52:43.543Z,993.9
2023-05-03T04:56:56.011Z,994
2023-05-03T04:58:48.228Z,994
2023-05-03T05:02:50.948Z,994.2
2023-05-03T05:04:52.246Z,994.1
2023-05-03T05:06:53.806Z,994
2023-05-03T05:08:55.184Z,994.1
2023-05-03T05:12:57.946Z,994.1
2023-05-03T05:17:01.088Z,994.2
2023-05-03T05:19:02.897Z,994.1
2023-05-03T05:23:05.845Z,994.3
2023-05-03T05:25:06.994Z,994.2
2023-05-03T05:29:10.245Z,994.2
2023-05-03T05:33:13.264Z,994.2
2023-05-03T05:35:15.061Z,994.1
2023-05-03T05:39:17.803Z,994.1
2023-05-03T05:41:18.873Z,994.1
2023-05-03T05:45:21.156Z,994.1
2023-05-03T05:49:23.790Z,994.1
2023-05-03T05:51:25.120Z,994.1
2023-05-03T05:55:28.162Z,994
2023-05-03T06:01:31.343Z,994.2
2023-05-03T06:05:34.776Z,994.2
2023-05-03T06:07:36.221Z,994.1
2023-05-03T06:09:37.971Z,994.1
2023-05-03T06:11:39.716Z,994.2
2023-05-03T06:15:42.211Z,994.1
2023-05-03T06:17:43.691Z,994.2
2023-05-03T06:19:45.276Z,994.3
2023-05-03T06:21:46.131Z,994.3
2023-05-03T06:23:47.389Z,994.2
2023-05-03T06:27:50.794Z,994.3
2023-05-03T06:29:52.308Z,994.2
2023-05-03T06:31:54.193Z,994.3
2023-05-03T06:33:55.930Z,994.3
2023-05-03T06:37:58.892Z,994.3
2023-05-03T06:40:00.789Z,994.4
2023-05-03T06:44:02.868Z,994.4
2023-05-03T06:48:05.742Z,994.1
2023-05-03T06:50:06.872Z,994.3
2023-05-03T06:54:10.424Z,994.2
2023-05-03T06:58:13.268Z,994.2
2023-05-03T07:00:14.697Z,994.1
2023-05-03T07:04:17.314Z,994.2
2023-05-03T07:06:18.426Z,994.1
2023-05-03T07:10:21.678Z,994.2
2023-05-03T07:14:23.924Z,994.2
2023-05-03T07:16:25.718Z,994.1
2023-05-03T07:20:36.698Z,994.1
2023-05-03T07:22:30.464Z,994.2
2023-05-03T07:26:32.975Z,994
2023-05-03T07:30:36.005Z,994
2023-05-03T07:32:37.205Z,993.9
2023-05-03T07:36:39.950Z,993.8
2023-05-03T07:40:42.525Z,993.9
2023-05-03T07:42:44.091Z,993.9
2023-05-03T07:46:47.445Z,993.8
2023-05-03T07:48:48.385Z,993.8
2023-05-03T07:52:50.954Z,993.8
2023-05-03T07:56:55.743Z,993.8
2023-05-03T07:59:05.087Z,993.8
2023-05-03T08:02:59.405Z,993.7
2023-05-03T08:05:00.841Z,993.8
2023-05-03T08:09:03.998Z,993.7
2023-05-03T08:13:06.241Z,993.8
2023-05-03T08:15:07.977Z,993.7
2023-05-03T08:19:12.097Z,993.8
2023-05-03T08:23:16.250Z,993.8
2023-05-03T08:25:16.643Z,993.7
2023-05-03T08:29:19.263Z,993.7
2023-05-03T08:31:20.208Z,993.8
2023-05-03T08:35:23.265Z,993.8
2023-05-03T08:39:26.099Z,993.7
2023-05-03T08:41:28.100Z,993.8
2023-05-03T08:45:30.858Z,993.8
2023-05-03T08:47:32.328Z,993.8
2023-05-03T08:51:34.735Z,993.9
2023-05-03T08:55:36.761Z,993.9
2023-05-03T08:57:37.876Z,993.9
2023-05-03T09:00:22.969Z,993.9
2023-05-03T09:02:24.213Z,993.9
2023-05-03T09:06:26.387Z,993.9
2023-05-03T09:08:27.484Z,993.8
2023-05-03T09:12:29.858Z,993.9
2023-05-03T09:16:32.151Z,993.8
2023-05-03T09:18:33.448Z,993.8
2023-05-03T09:22:35.495Z,993.8
2023-05-03T09:24:36.941Z,993.9
2023-05-03T09:28:40.212Z,993.8
2023-05-03T09:32:43.116Z,993.8
2023-05-03T09:34:44.755Z,993.9
2023-05-03T09:38:47.232Z,993.9
2023-05-03T09:40:48.616Z,993.9
2023-05-03T09:44:50.657Z,993.9
2023-05-03T09:48:53.294Z,993.8
2023-05-03T09:50:54.117Z,993.8
2023-05-03T09:54:57.233Z,993.8
2023-05-03T09:58:59.893Z,993.8
2023-05-03T10:01:01.454Z,993.7
2023-05-03T10:05:04.306Z,993.7
2023-05-03T10:07:05.809Z,993.8
2023-05-03T10:11:08.298Z,993.8
2023-05-03T10:15:10.740Z,993.7
2023-05-03T10:17:12.046Z,993.8
2023-05-03T10:21:15.256Z,993.7
2023-05-03T10:23:16.872Z,993.6
2023-05-03T10:27:19.526Z,993.7
2023-05-03T10:31:22.080Z,993.6
2023-05-03T10:33:23.132Z,993.6
2023-05-03T10:37:25.917Z,993.6
2023-05-03T10:43:29.788Z,993.5
2023-05-03T10:47:33.066Z,993.5
2023-05-03T10:49:34.682Z,993.5
2023-05-03T10:51:35.720Z,993.5
2023-05-03T10:53:36.722Z,993.5
2023-05-03T10:57:40.148Z,993.5
2023-05-03T10:59:40.579Z,993.5
2023-05-03T11:01:42.203Z,993.4
2023-05-03T11:03:43.408Z,993.4
2023-05-03T11:05:44.236Z,993.4
2023-05-03T11:09:47.689Z,993.4
2023-05-03T11:13:50.773Z,993.3
2023-05-03T11:15:51.881Z,993.3
2023-05-03T11:19:54.449Z,993.2
2023-05-03T11:21:55.684Z,993.2
2023-05-03T11:25:58.208Z,993.2
2023-05-03T11:30:00.490Z,993.2
2023-05-03T11:32:01.727Z,993.2
2023-05-03T11:36:04.639Z,993.2
2023-05-03T11:38:06.281Z,993.2
2023-05-03T11:42:09.007Z,993.1
2023-05-03T11:46:11.977Z,993.1
2023-05-03T11:48:13.253Z,993.1
2023-05-03T11:52:15.932Z,993.1
2023-05-03T11:54:24.795Z,993.2
2023-05-03T11:58:20.837Z,993.2
2023-05-03T12:02:24.235Z,993.2
2023-05-03T12:04:25.915Z,993
2023-05-03T12:08:30.124Z,993.1
2023-05-03T12:12:33.550Z,992.9
2023-05-03T12:14:33.421Z,992.9
2023-05-03T12:18:35.749Z,992.9
2023-05-03T12:22:37.908Z,992.9
2023-05-03T12:24:39.780Z,992.9
2023-05-03T12:28:42.054Z,992.8
2023-05-03T12:30:45.738Z,992.8
2023-05-03T12:32:44.808Z,992.8
2023-05-03T12:34:46.841Z,992.7
2023-05-03T12:36:48.939Z,992.7
2023-05-03T12:40:50.308Z,992.7
2023-05-03T12:44:53.655Z,992.7
2023-05-03T12:46:54.336Z,992.7
2023-05-03T12:51:06.155Z,992.7
2023-05-03T12:52:59.176Z,992.7
2023-05-03T13:01:37.720Z,992.5
2023-05-03T13:07:12.384Z,992.5
2023-05-03T13:11:09.101Z,992.5
2023-05-03T13:13:10.018Z,992.4
2023-05-03T13:17:13.256Z,992.4
2023-05-03T13:19:14.628Z,992.5
2023-05-03T13:23:16.471Z,992.4
2023-05-03T13:27:19.913Z,992.4
2023-05-03T13:29:20.904Z,992.4
2023-05-03T13:33:23.750Z,992.4
2023-05-03T13:35:24.763Z,992.4
2023-05-03T13:39:27.995Z,992.4
2023-05-03T13:43:30.635Z,992.4
2023-05-03T13:45:31.866Z,992.3
2023-05-03T13:49:34.636Z,992.3
2023-05-03T13:53:37.168Z,992.3
2023-05-03T13:55:39.176Z,992.2
2023-05-03T13:59:42.163Z,992.1
2023-05-03T14:01:43.836Z,992.1
2023-05-03T14:05:46.076Z,992.1
2023-05-03T14:09:48.312Z,992
2023-05-03T14:11:49.433Z,992
2023-05-03T14:15:51.972Z,992
2023-05-03T14:17:55.352Z,991.9
2023-05-03T14:21:55.895Z,991.8
2023-05-03T14:25:58.901Z,991.8
2023-05-03T14:28:00.513Z,991.8
2023-05-03T14:32:02.832Z,991.8
2023-05-03T14:38:05.822Z,991.8
2023-05-03T14:42:08.586Z,991.7
2023-05-03T14:44:10.327Z,991.7
2023-05-03T14:48:13.314Z,991.7
2023-05-03T14:52:16.387Z,991.7
2023-05-03T14:54:17.202Z,991.7
2023-05-03T14:58:19.890Z,991.7
2023-05-03T15:00:21.451Z,991.7
2023-05-03T15:04:23.836Z,991.7
2023-05-03T15:08:26.222Z,991.8
2023-05-03T15:10:27.955Z,991.7
2023-05-03T15:14:31.253Z,991.6
2023-05-03T15:16:34.072Z,991.7
2023-05-03T15:20:35.206Z,991.6
2023-05-03T15:24:37.718Z,991.6
2023-05-03T15:26:40.096Z,991.6
2023-05-03T15:30:42.297Z,991.6
2023-05-03T15:34:44.277Z,991.7
2023-05-03T15:36:45.829Z,991.6
2023-05-03T15:40:49.209Z,991.6
2023-05-03T15:42:50.939Z,991.5
2023-05-03T15:45:37.221Z,991.5
2023-05-03T15:47:38.804Z,991.4
2023-05-03T15:51:41.692Z,991.4
2023-05-03T15:53:42.867Z,991.5
2023-05-03T15:57:46.276Z,991.5
2023-05-03T16:01:49.220Z,991.4
2023-05-03T16:03:50.407Z,991.5
2023-05-03T16:07:53.031Z,991.5
2023-05-03T16:11:55.649Z,991.5
2023-05-03T16:13:56.981Z,991.5
2023-05-03T16:17:59.693Z,991.4
2023-05-03T16:20:00.806Z,991.4
2023-05-03T16:24:03.968Z,991.4
2023-05-03T16:28:07.557Z,991.4
2023-05-03T16:30:08.879Z,991.4
2023-05-03T16:34:11.950Z,991.3
2023-05-03T16:36:12.978Z,991.3
2023-05-03T16:40:15.342Z,991.3
2023-05-03T16:44:17.253Z,991.2
2023-05-03T16:46:18.391Z,991.2
2023-05-03T16:50:20.571Z,991.3
2023-05-03T16:54:22.428Z,991.2
2023-05-03T16:56:23.457Z,991.2
2023-05-03T17:00:26.367Z,991.1
2023-05-03T17:02:28.067Z,991.2
2023-05-03T17:04:29.217Z,991.2
2023-05-03T17:06:30.951Z,991.2
2023-05-03T17:10:33.530Z,991.1
2023-05-03T17:12:34.705Z,991.2
2023-05-03T17:14:36.225Z,991.2
2023-05-03T17:16:37.745Z,991.2
2023-05-03T17:18:39.174Z,991.1
2023-05-03T17:22:42.069Z,991.2
2023-05-03T17:24:43.561Z,991.2
2023-05-03T17:26:44.346Z,991.2
2023-05-03T17:28:46.291Z,991.2
2023-05-03T17:32:48.641Z,991.2
2023-05-03T17:34:50.252Z,991.3
2023-05-03T17:38:53.172Z,991.2
2023-05-03T17:42:55.615Z,991.3
2023-05-03T17:44:56.464Z,991.3
2023-05-03T17:48:59.286Z,991.2
2023-05-03T17:53:02.863Z,991.3
2023-05-03T17:55:13.017Z,991.2
2023-05-03T17:59:06.493Z,991.2
2023-05-03T18:01:08.133Z,991.3
2023-05-03T18:05:10.581Z,991.2
2023-05-03T18:09:13.379Z,991.1
2023-05-03T18:11:14.803Z,991.2
2023-05-03T18:15:17.854Z,991.2
2023-05-03T18:17:19.405Z,991.1
2023-05-03T18:21:22.178Z,991.2
2023-05-03T18:25:25.731Z,991.3
2023-05-03T18:27:26.897Z,991.3
2023-05-03T18:31:28.635Z,991.2
2023-05-03T18:35:32.028Z,991.3
2023-05-03T18:37:33.280Z,991.3
2023-05-03T18:41:35.769Z,991.4
2023-05-03T18:43:38.871Z,991.3
2023-05-03T18:47:40.161Z,991.4
2023-05-03T18:51:43.572Z,991.4
2023-05-03T18:53:44.883Z,991.4
2023-05-03T18:57:49.260Z,991.4
2023-05-03T18:59:59.797Z,991.4
2023-05-03T19:03:52.093Z,991.4
2023-05-03T19:07:55.141Z,991.4
2023-05-03T19:09:56.234Z,991.3
2023-05-03T19:13:59.055Z,991.5
2023-05-03T19:16:00.519Z,991.4
2023-05-03T19:20:04.183Z,991.5
2023-05-03T19:24:06.496Z,991.5
2023-05-03T19:26:08.017Z,991.6
2023-05-03T19:30:11.448Z,991.5
2023-05-03T19:34:14.098Z,991.6
2023-05-03T19:36:15.640Z,991.5
2023-05-03T19:40:19.269Z,991.5
2023-05-03T19:42:20.485Z,991.5
2023-05-03T19:46:22.488Z,991.4
2023-05-03T19:50:24.528Z,991.5
2023-05-03T19:52:25.697Z,991.5
2023-05-03T19:56:29.128Z,991.5
2023-05-03T20:00:31.979Z,991.6
2023-05-03T20:02:33.708Z,991.6
2023-05-03T20:06:36.490Z,991.7
2023-05-03T20:08:37.813Z,991.7
2023-05-03T20:10:39.056Z,991.7
2023-05-03T20:12:40.109Z,991.7
2023-05-03T20:16:42.580Z,991.8
2023-05-03T20:18:44.509Z,991.7
2023-05-03T20:20:46.390Z,991.7
2023-05-03T20:22:47.416Z,991.7
2023-05-03T20:24:50.652Z,991.7
2023-05-03T20:28:51.634Z,991.8
2023-05-03T20:32:54.233Z,991.7
2023-05-03T20:34:55.940Z,991.7
2023-05-03T20:38:58.586Z,991.7
2023-05-03T20:41:00.147Z,991.6
2023-05-03T20:45:02.766Z,991.7
2023-05-03T20:49:05.532Z,991.7
2023-05-03T20:51:06.131Z,991.6
2023-05-03T20:55:09.048Z,991.6
2023-05-03T20:59:11.623Z,991.5
2023-05-03T21:01:13.410Z,991.5
2023-05-03T21:05:16.245Z,991.6
2023-05-03T21:07:17.885Z,991.6
2023-05-03T21:11:20.435Z,991.5
2023-05-03T21:15:23.274Z,991.5
2023-05-03T21:17:24.850Z,991.5
2023-05-03T21:21:27.675Z,991.5
2023-05-03T21:23:29.146Z,991.5
2023-05-03T21:27:31.640Z,991.4
2023-05-03T21:31:35.062Z,991.6
2023-05-03T21:33:36.852Z,991.5
2023-05-03T21:37:40.526Z,991.6
2023-05-03T21:41:43.603Z,991.5
2023-05-03T21:43:44.936Z,991.5
2023-05-03T21:47:47.996Z,991.5
2023-05-03T21:49:49.534Z,991.6
2023-05-03T21:53:52.416Z,991.5
2023-05-03T21:57:55.240Z,991.4
2023-05-03T21:59:57.081Z,991.4
2023-05-03T22:04:00.261Z,991.3
2023-05-03T22:06:01.955Z,991.4
2023-05-03T22:10:04.812Z,991.3
2023-05-03T22:14:08.567Z,991.2
2023-05-03T22:16:08.439Z,991.3
2023-05-03T22:20:11.332Z,991.4
2023-05-03T22:24:14.143Z,991.3
2023-05-03T22:26:15.303Z,991.3
2023-05-03T22:29:00.688Z,991.4
2023-05-03T22:31:02.271Z,991.3
2023-05-03T22:35:04.718Z,991.3
2023-05-03T22:37:06.012Z,991.3
2023-05-03T22:39:07.817Z,991.3
2023-05-03T22:41:09.195Z,991.2
2023-05-03T22:43:10.217Z,991.3
2023-05-03T22:47:13.391Z,991.3
2023-05-03T22:49:15.147Z,991.2
2023-05-03T22:51:16.832Z,991.3
2023-05-03T22:53:18.065Z,991.3
2023-05-03T22:57:21.160Z,991.3
2023-05-03T22:59:22.919Z,991.2
2023-05-03T23:03:26.143Z,991.2
2023-05-03T23:07:29.423Z,991.2
2023-05-03T23:09:30.988Z,991.2
2023-05-03T23:13:34.670Z,991.3
2023-05-03T23:17:37.449Z,991.3
2023-05-03T23:19:39.074Z,991.2
2023-05-03T23:23:42.090Z,991.2
2023-05-03T23:25:43.599Z,991.3
2023-05-03T23:29:46.351Z,991.2
2023-05-03T23:33:49.817Z,991.1
2023-05-03T23:35:51.706Z,991.1
2023-05-03T23:39:55.048Z,991.2
2023-05-03T23:41:56.647Z,991.1
2023-05-03T23:45:58.835Z,991.1
2023-05-03T23:50:02.997Z,991.2
2023-05-03T23:52:04.075Z,991.1
2023-05-03T23:56:07.453Z,991.1
